createdAt,value
2023-06-28T00:02:20.406Z,3.83
2023-06-28T00:04:49.140Z,3.77
2023-06-28T00:07:18.408Z,3.97
2023-06-28T00:09:46.910Z,5.30
2023-06-28T00:12:15.539Z,5.03
2023-06-28T00:14:44.044Z,5.40
2023-06-28T00:17:12.704Z,6.47
2023-06-28T00:19:49.187Z,5.30
2023-06-28T00:22:17.762Z,4.80
2023-06-28T00:24:46.359Z,4.87
2023-06-28T00:27:14.869Z,6.20
2023-06-28T00:29:43.376Z,4.70
2023-06-28T00:32:12.162Z,5.30
2023-06-28T00:34:42.680Z,4.20
2023-06-28T00:37:11.204Z,4.30
2023-06-28T00:39:39.857Z,4.00
2023-06-28T00:42:09.165Z,3.97
2023-06-28T00:44:37.718Z,3.97
2023-06-28T00:47:07.301Z,3.77
2023-06-28T00:49:38.009Z,3.97
2023-06-28T00:52:08.964Z,4.13
2023-06-28T00:54:37.631Z,3.30
2023-06-28T00:57:06.583Z,4.30
2023-06-28T00:59:35.247Z,7.00
2023-06-28T01:02:04.103Z,7.90
2023-06-28T01:04:32.647Z,5.70
2023-06-28T01:07:01.406Z,5.80
2023-06-28T01:09:31.872Z,5.90
2023-06-28T01:12:00.378Z,5.40
2023-06-28T01:14:28.932Z,4.97
2023-06-28T01:16:57.664Z,4.17
2023-06-28T01:19:26.878Z,4.40
2023-06-28T01:21:58.303Z,4.33
2023-06-28T01:24:28.399Z,6.00
2023-06-28T01:26:59.582Z,6.37
2023-06-28T01:29:28.422Z,6.20
2023-06-28T01:31:57.642Z,5.37
2023-06-28T01:34:27.898Z,4.80
2023-06-28T01:36:57.735Z,4.30
2023-06-28T01:39:27.266Z,7.00
2023-06-28T01:41:57.464Z,5.10
2023-06-28T01:44:26.108Z,5.47
2023-06-28T01:46:55.054Z,6.60
2023-06-28T01:49:23.934Z,5.90
2023-06-28T01:51:52.774Z,5.53
2023-06-28T01:54:21.575Z,5.43
2023-06-28T01:56:50.100Z,4.47
2023-06-28T01:59:20.015Z,4.37
2023-06-28T02:01:48.758Z,5.63
2023-06-28T02:04:17.325Z,4.97
2023-06-28T02:06:45.822Z,3.60
2023-06-28T02:09:14.495Z,3.67
2023-06-28T02:11:42.986Z,3.90
2023-06-28T02:14:11.487Z,3.87
2023-06-28T02:16:42.509Z,3.80
2023-06-28T02:19:13.880Z,4.00
2023-06-28T02:21:43.142Z,3.77
2023-06-28T02:24:11.682Z,9.57
2023-06-28T02:26:40.231Z,5.23
2023-06-28T02:29:08.855Z,5.13
2023-06-28T02:31:37.458Z,4.87
2023-06-28T02:34:07.353Z,4.10
2023-06-28T02:36:36.036Z,4.10
2023-06-28T02:39:05.225Z,4.37
2023-06-28T02:41:33.721Z,3.93
2023-06-28T02:44:02.343Z,4.00
2023-06-28T02:46:30.885Z,4.10
2023-06-28T02:48:59.405Z,4.00
2023-06-28T02:51:29.472Z,5.00
2023-06-28T02:53:58.076Z,5.60
2023-06-28T02:56:26.828Z,4.30
2023-06-28T02:58:55.558Z,4.53
2023-06-28T03:01:24.101Z,6.03
2023-06-28T03:03:52.677Z,5.73
2023-06-28T03:06:21.481Z,5.93
2023-06-28T03:08:52.320Z,5.77
2023-06-28T03:11:20.996Z,5.70
2023-06-28T03:13:49.492Z,6.30
2023-06-28T03:16:18.012Z,5.57
2023-06-28T03:18:46.622Z,5.10
2023-06-28T03:21:15.124Z,4.73
2023-06-28T03:23:43.638Z,5.10
2023-06-28T03:26:13.652Z,5.10
2023-06-28T03:28:42.271Z,4.40
2023-06-28T03:31:11.014Z,4.83
2023-06-28T03:33:39.499Z,5.00
2023-06-28T03:36:08.329Z,4.47
2023-06-28T03:38:36.819Z,4.77
2023-06-28T03:41:05.319Z,4.50
2023-06-28T03:43:35.331Z,4.30
2023-06-28T03:46:03.885Z,5.10
2023-06-28T03:48:32.865Z,4.83
2023-06-28T03:51:01.454Z,5.10
2023-06-28T03:53:29.972Z,4.90
2023-06-28T03:55:58.929Z,4.70
2023-06-28T03:58:27.602Z,4.60
2023-06-28T04:00:57.958Z,5.17
2023-06-28T04:03:27.538Z,5.30
2023-06-28T04:05:56.229Z,5.63
2023-06-28T04:08:28.054Z,6.03
2023-06-28T04:10:57.264Z,6.00
2023-06-28T04:13:26.867Z,5.90
2023-06-28T04:15:57.159Z,5.07
2023-06-28T04:18:26.240Z,5.77
2023-06-28T04:20:55.169Z,6.10
2023-06-28T04:23:23.761Z,6.00
2023-06-28T04:25:53.630Z,6.53
2023-06-28T04:28:22.141Z,6.13
2023-06-28T04:30:50.901Z,5.90
2023-06-28T04:33:23.749Z,6.20
2023-06-28T04:35:54.137Z,6.30
2023-06-28T04:38:24.065Z,6.20
2023-06-28T04:40:52.579Z,6.10
2023-06-28T04:43:22.095Z,6.27
2023-06-28T04:45:50.855Z,6.37
2023-06-28T04:48:20.838Z,6.37
2023-06-28T04:50:49.436Z,6.03
2023-06-28T04:53:17.940Z,6.33
2023-06-28T04:55:49.283Z,6.33
2023-06-28T04:58:19.250Z,5.87
2023-06-28T05:00:47.905Z,5.97
2023-06-28T05:03:17.053Z,6.03
2023-06-28T05:05:47.235Z,5.90
2023-06-28T05:08:17.160Z,5.23
2023-06-28T05:10:45.664Z,5.80
2023-06-28T05:13:14.271Z,5.90
2023-06-28T05:15:42.820Z,6.10
2023-06-28T05:18:11.317Z,5.63
2023-06-28T05:20:40.175Z,5.90
2023-06-28T05:23:13.973Z,6.17
2023-06-28T05:25:43.066Z,6.27
2023-06-28T05:28:12.380Z,5.87
2023-06-28T05:30:41.422Z,5.83
2023-06-28T05:33:10.314Z,6.23
2023-06-28T05:35:39.367Z,5.97
2023-06-28T05:38:08.387Z,5.83
2023-06-28T05:40:38.424Z,5.70
2023-06-28T05:43:07.124Z,5.20
2023-06-28T05:45:35.640Z,5.80
2023-06-28T05:48:04.330Z,5.73
2023-06-28T05:50:32.860Z,5.20
2023-06-28T05:53:01.386Z,5.97
2023-06-28T05:55:30.118Z,5.97
2023-06-28T05:57:59.989Z,6.10
2023-06-28T06:00:28.633Z,6.00
2023-06-28T06:02:57.318Z,5.77
2023-06-28T06:05:26.112Z,5.83
2023-06-28T06:07:54.609Z,5.60
2023-06-28T06:10:23.091Z,6.40
2023-06-28T06:12:52.032Z,5.80
2023-06-28T06:15:22.127Z,6.00
2023-06-28T06:17:50.659Z,5.57
2023-06-28T06:20:19.295Z,5.47
2023-06-28T06:22:47.831Z,5.30
2023-06-28T06:25:16.369Z,5.87
2023-06-28T06:27:45.049Z,5.30
2023-06-28T06:30:14.996Z,4.07
2023-06-28T06:32:44.928Z,4.10
2023-06-28T06:35:15.105Z,3.17
2023-06-28T06:37:46.033Z,3.60
2023-06-28T06:40:14.942Z,4.00
2023-06-28T06:42:43.504Z,4.23
2023-06-28T06:45:18.060Z,4.77
2023-06-28T06:47:48.192Z,4.13
2023-06-28T06:50:18.699Z,4.23
2023-06-28T06:52:47.422Z,3.90
2023-06-28T06:55:16.135Z,3.70
2023-06-28T06:57:47.513Z,3.20
2023-06-28T07:00:17.577Z,3.20
2023-06-28T07:02:46.404Z,3.10
2023-06-28T07:05:17.035Z,3.70
2023-06-28T07:07:45.709Z,3.80
2023-06-28T07:10:14.473Z,3.73
2023-06-28T07:12:43.165Z,3.50
2023-06-28T07:15:12.170Z,3.63
2023-06-28T07:17:40.956Z,3.83
2023-06-28T07:20:10.364Z,3.60
2023-06-28T07:22:40.503Z,3.47
2023-06-28T07:25:09.309Z,3.90
2023-06-28T07:27:37.853Z,4.15
2023-06-28T07:30:06.958Z,4.10
2023-06-28T07:32:35.666Z,3.92
2023-06-28T07:35:04.171Z,3.78
2023-06-28T07:37:32.705Z,3.45
2023-06-28T07:40:02.755Z,3.60
2023-06-28T07:42:31.390Z,3.08
2023-06-28T07:45:00.009Z,3.40
2023-06-28T07:47:28.700Z,3.40
2023-06-28T07:49:57.274Z,3.78
2023-06-28T07:52:25.769Z,3.65
2023-06-28T07:54:54.376Z,3.90
2023-06-28T07:57:24.400Z,3.40
2023-06-28T07:59:52.933Z,3.50
2023-06-28T08:02:21.921Z,3.63
2023-06-28T08:04:50.897Z,3.45
2023-06-28T08:07:19.486Z,3.60
2023-06-28T08:09:48.200Z,3.45
2023-06-28T08:12:16.704Z,3.78
2023-06-28T08:14:46.629Z,3.53
2023-06-28T08:17:15.330Z,3.50
2023-06-28T08:19:43.840Z,3.70
2023-06-28T08:22:12.581Z,3.90
2023-06-28T08:24:41.122Z,3.67
2023-06-28T08:27:09.754Z,3.85
2023-06-28T08:29:38.350Z,3.42
2023-06-28T08:32:08.784Z,3.60
2023-06-28T08:34:37.297Z,3.80
2023-06-28T08:37:06.194Z,4.05
2023-06-28T08:39:34.865Z,3.42
2023-06-28T08:42:03.617Z,3.97
2023-06-28T08:44:33.288Z,3.80
2023-06-28T08:47:02.327Z,3.60
2023-06-28T08:49:33.806Z,3.50
2023-06-28T08:52:02.657Z,3.70
2023-06-28T08:54:31.844Z,3.67
2023-06-28T08:57:11.328Z,3.60
2023-06-28T08:59:40.851Z,3.40
2023-06-28T09:02:10.997Z,3.70
2023-06-28T09:04:41.034Z,3.53
2023-06-28T09:07:10.564Z,3.47
2023-06-28T09:09:40.468Z,3.80
2023-06-28T09:12:09.478Z,3.60
2023-06-28T09:14:38.404Z,3.70
2023-06-28T09:17:07.158Z,3.55
2023-06-28T09:19:35.670Z,3.38
2023-06-28T09:22:05.998Z,3.15
2023-06-28T09:24:37.723Z,3.65
2023-06-28T09:27:06.783Z,3.55
2023-06-28T09:29:35.538Z,3.60
2023-06-28T09:32:04.336Z,3.30
2023-06-28T09:34:32.990Z,3.03
2023-06-28T09:37:01.508Z,3.58
2023-06-28T09:39:38.694Z,3.42
2023-06-28T09:42:07.950Z,3.63
2023-06-28T09:44:36.522Z,3.47
2023-06-28T09:47:05.679Z,3.50
2023-06-28T09:49:35.631Z,3.38
2023-06-28T09:52:05.926Z,3.13
2023-06-28T09:54:36.258Z,3.28
2023-06-28T09:57:05.216Z,3.40
2023-06-28T09:59:37.781Z,3.20
2023-06-28T10:02:07.722Z,2.88
2023-06-28T10:04:37.094Z,2.95
2023-06-28T10:07:06.719Z,2.90
2023-06-28T10:09:38.847Z,3.13
2023-06-28T10:12:10.984Z,3.17
2023-06-28T10:14:41.632Z,2.80
2023-06-28T10:17:11.128Z,3.00
2023-06-28T10:19:39.909Z,3.40
2023-06-28T10:22:08.857Z,2.95
2023-06-28T10:24:39.829Z,3.20
2023-06-28T10:27:08.434Z,3.30
2023-06-28T10:29:37.998Z,3.05
2023-06-28T10:32:07.052Z,2.85
2023-06-28T10:34:36.470Z,2.80
2023-06-28T10:37:05.481Z,2.70
2023-06-28T10:39:36.215Z,2.60
2023-06-28T10:42:06.881Z,2.97
2023-06-28T10:44:35.456Z,3.00
2023-06-28T10:47:13.627Z,2.85
2023-06-28T10:49:43.015Z,2.85
2023-06-28T10:52:19.832Z,2.90
2023-06-28T10:54:48.544Z,2.85
2023-06-28T10:57:18.613Z,2.47
2023-06-28T10:59:48.767Z,2.55
2023-06-28T11:02:17.346Z,3.00
2023-06-28T11:04:55.012Z,2.50
2023-06-28T11:07:25.948Z,2.72
2023-06-28T11:10:15.709Z,2.35
2023-06-28T11:12:47.924Z,2.95
2023-06-28T11:15:16.527Z,2.92
2023-06-28T11:17:45.160Z,2.70
2023-06-28T11:20:14.389Z,2.88
2023-06-28T11:22:51.229Z,2.90
2023-06-28T11:25:19.901Z,3.03
2023-06-28T11:27:49.995Z,2.80
2023-06-28T11:30:19.290Z,2.88
2023-06-28T11:32:48.103Z,2.70
2023-06-28T11:35:17.038Z,2.72
2023-06-28T11:37:45.587Z,3.00
2023-06-28T11:40:15.728Z,2.95
2023-06-28T11:42:47.315Z,2.85
2023-06-28T11:45:21.988Z,2.60
2023-06-28T11:47:50.767Z,2.95
2023-06-28T11:50:19.376Z,3.10
2023-06-28T11:52:49.128Z,2.75
2023-06-28T11:55:17.832Z,2.90
2023-06-28T11:57:46.824Z,2.58
2023-06-28T12:00:18.544Z,2.78
2023-06-28T12:02:51.302Z,2.78
2023-06-28T12:05:20.442Z,2.78
2023-06-28T12:07:49.033Z,2.72
2023-06-28T12:10:18.182Z,2.80
2023-06-28T12:12:46.964Z,2.58
2023-06-28T12:15:18.126Z,2.53
2023-06-28T12:17:48.095Z,2.72
2023-06-28T12:20:16.617Z,2.72
2023-06-28T12:22:47.005Z,2.90
2023-06-28T12:25:15.979Z,2.90
2023-06-28T12:27:44.526Z,2.80
2023-06-28T12:30:13.838Z,2.60
2023-06-28T12:32:47.766Z,2.78
2023-06-28T12:35:25.788Z,2.60
2023-06-28T12:37:58.311Z,2.63
2023-06-28T12:40:30.363Z,2.70
2023-06-28T12:43:14.567Z,2.60
2023-06-28T12:45:46.300Z,2.67
2023-06-28T12:48:18.284Z,2.80
2023-06-28T12:50:47.430Z,2.65
2023-06-28T12:53:16.234Z,2.63
2023-06-28T12:55:45.110Z,3.40
2023-06-28T12:58:13.897Z,3.13
2023-06-28T13:00:46.042Z,3.60
2023-06-28T13:03:17.704Z,3.40
2023-06-28T13:05:48.553Z,3.30
2023-06-28T13:08:17.110Z,3.03
2023-06-28T13:10:45.798Z,3.13
2023-06-28T13:13:14.618Z,3.20
2023-06-28T13:15:43.422Z,3.10
2023-06-28T13:18:12.145Z,3.13
2023-06-28T13:20:42.291Z,3.08
2023-06-28T13:23:11.125Z,3.25
2023-06-28T13:25:39.645Z,3.10
2023-06-28T13:28:08.996Z,3.47
2023-06-28T13:30:37.690Z,3.25
2023-06-28T13:33:06.319Z,3.50
2023-06-28T13:35:34.911Z,3.30
2023-06-28T13:38:04.849Z,3.47
2023-06-28T13:40:33.525Z,3.20
2023-06-28T13:43:02.744Z,3.30
2023-06-28T13:45:31.339Z,2.95
2023-06-28T13:48:01.968Z,3.10
2023-06-28T13:50:30.772Z,3.20
2023-06-28T13:52:59.263Z,3.53
2023-06-28T13:55:29.349Z,3.15
2023-06-28T13:57:57.893Z,2.92
2023-06-28T14:00:26.461Z,3.03
2023-06-28T14:02:56.093Z,3.30
2023-06-28T14:05:25.614Z,3.22
2023-06-28T14:07:54.303Z,3.42
2023-06-28T14:10:22.960Z,3.28
2023-06-28T14:12:52.844Z,3.25
2023-06-28T14:15:21.546Z,3.28
2023-06-28T14:17:50.197Z,3.47
2023-06-28T14:20:18.736Z,3.22
2023-06-28T14:22:51.107Z,3.30
2023-06-28T14:25:19.767Z,3.28
2023-06-28T14:27:48.411Z,3.03
2023-06-28T14:30:19.923Z,2.55
2023-06-28T14:32:51.499Z,3.30
2023-06-28T14:35:20.460Z,3.10
2023-06-28T14:37:48.980Z,3.17
2023-06-28T14:40:17.622Z,3.03
2023-06-28T14:42:46.132Z,3.05
2023-06-28T14:45:15.359Z,3.03
2023-06-28T14:47:45.570Z,2.80
2023-06-28T14:50:14.687Z,2.85
2023-06-28T14:52:43.260Z,2.65
2023-06-28T14:55:12.144Z,3.08
2023-06-28T14:57:40.665Z,2.83
2023-06-28T15:00:10.956Z,2.92
2023-06-28T15:02:39.681Z,2.70
2023-06-28T15:05:09.996Z,2.53
2023-06-28T15:07:38.552Z,2.50
2023-06-28T15:10:07.746Z,2.70
2023-06-28T15:12:36.283Z,2.80
2023-06-28T15:15:04.786Z,2.40
2023-06-28T15:17:33.420Z,2.58
2023-06-28T15:20:02.044Z,2.33
2023-06-28T15:22:32.736Z,2.53
2023-06-28T15:25:01.829Z,2.60
2023-06-28T15:27:30.331Z,2.45
2023-06-28T15:29:58.941Z,2.38
2023-06-28T15:32:27.644Z,2.42
2023-06-28T15:34:56.153Z,2.30
2023-06-28T15:37:24.767Z,2.80
2023-06-28T15:39:54.781Z,2.42
2023-06-28T15:42:23.296Z,2.47
2023-06-28T15:44:51.826Z,2.20
2023-06-28T15:47:20.570Z,2.42
2023-06-28T15:49:49.192Z,2.60
2023-06-28T15:52:17.740Z,2.38
2023-06-28T15:54:46.380Z,2.53
2023-06-28T15:57:16.449Z,2.30
2023-06-28T15:59:44.985Z,2.70
2023-06-28T16:02:15.070Z,2.35
2023-06-28T16:04:43.776Z,2.25
2023-06-28T16:07:12.405Z,2.30
2023-06-28T16:09:40.993Z,2.20
2023-06-28T16:12:09.937Z,2.58
2023-06-28T16:14:40.245Z,2.20
2023-06-28T16:17:08.865Z,2.35
2023-06-28T16:19:37.388Z,2.28
2023-06-28T16:22:06.023Z,2.13
2023-06-28T16:24:34.734Z,2.00
2023-06-28T16:27:03.264Z,2.13
2023-06-28T16:29:31.792Z,2.35
2023-06-28T16:32:01.874Z,2.10
2023-06-28T16:34:30.529Z,2.45
2023-06-28T16:36:59.131Z,2.05
2023-06-28T16:39:28.518Z,2.10
2023-06-28T16:41:57.126Z,2.00
2023-06-28T16:44:25.628Z,2.78
2023-06-28T16:46:54.228Z,2.15
2023-06-28T16:49:24.210Z,2.17
2023-06-28T16:51:52.812Z,2.00
2023-06-28T16:54:23.411Z,1.98
2023-06-28T16:56:51.910Z,2.10
2023-06-28T16:59:20.491Z,2.13
2023-06-28T17:01:49.220Z,2.28
2023-06-28T17:04:17.728Z,2.15
2023-06-28T17:06:47.625Z,2.20
2023-06-28T17:09:16.262Z,2.25
2023-06-28T17:11:44.765Z,1.80
2023-06-28T17:14:13.269Z,2.13
2023-06-28T17:16:43.870Z,2.00
2023-06-28T17:19:12.367Z,1.90
2023-06-28T17:21:40.899Z,1.90
2023-06-28T17:24:10.901Z,1.70
2023-06-28T17:26:39.419Z,1.73
2023-06-28T17:29:09.724Z,2.15
2023-06-28T17:31:38.444Z,1.80
2023-06-28T17:34:06.960Z,1.88
2023-06-28T17:36:35.464Z,1.77
2023-06-28T17:39:04.157Z,1.60
2023-06-28T17:41:34.051Z,1.70
2023-06-28T17:44:02.574Z,1.70
2023-06-28T17:46:31.203Z,2.03
2023-06-28T17:48:59.806Z,1.90
2023-06-28T17:51:29.730Z,1.80
2023-06-28T17:53:58.960Z,1.60
2023-06-28T17:56:27.526Z,1.80
2023-06-28T17:58:57.464Z,1.70
2023-06-28T18:01:26.100Z,1.45
2023-06-28T18:03:55.138Z,2.03
2023-06-28T18:06:24.971Z,1.63
2023-06-28T18:08:53.661Z,1.70
2023-06-28T18:11:22.227Z,1.90
2023-06-28T18:13:50.740Z,1.90
2023-06-28T18:16:21.226Z,1.77
2023-06-28T18:18:49.752Z,1.75
2023-06-28T18:21:18.416Z,1.80
2023-06-28T18:23:47.207Z,1.95
2023-06-28T18:26:15.712Z,1.83
2023-06-28T18:28:44.374Z,1.80
2023-06-28T18:31:13.138Z,1.70
2023-06-28T18:33:43.347Z,2.10
2023-06-28T18:36:11.958Z,1.80
2023-06-28T18:38:40.617Z,2.03
2023-06-28T18:41:09.174Z,2.10
2023-06-28T18:43:37.688Z,2.13
2023-06-28T18:46:06.447Z,2.20
2023-06-28T18:48:35.219Z,2.00
2023-06-28T18:51:05.152Z,1.90
2023-06-28T18:53:33.747Z,1.83
2023-06-28T18:56:02.952Z,1.90
2023-06-28T18:58:34.283Z,2.08
2023-06-28T19:01:03.152Z,2.00
2023-06-28T19:03:31.732Z,1.90
2023-06-28T19:06:00.373Z,2.17
2023-06-28T19:08:30.312Z,2.08
2023-06-28T19:10:59.373Z,1.92
2023-06-28T19:13:28.035Z,2.10
2023-06-28T19:15:56.636Z,1.90
2023-06-28T19:18:25.683Z,2.20
2023-06-28T19:20:54.320Z,2.30
2023-06-28T19:23:22.839Z,2.25
2023-06-28T19:25:52.893Z,2.08
2023-06-28T19:28:22.622Z,2.20
2023-06-28T19:30:51.445Z,2.03
2023-06-28T19:33:20.100Z,2.45
2023-06-28T19:35:51.637Z,2.30
2023-06-28T19:38:20.215Z,2.35
2023-06-28T19:40:48.716Z,2.22
2023-06-28T19:43:20.172Z,2.50
2023-06-28T19:45:48.725Z,2.63
2023-06-28T19:48:17.494Z,2.23
2023-06-28T19:50:46.536Z,2.10
2023-06-28T19:53:15.108Z,2.10
2023-06-28T19:55:43.698Z,2.50
2023-06-28T19:58:12.516Z,2.20
2023-06-28T20:00:42.766Z,2.13
2023-06-28T20:03:11.545Z,2.13
2023-06-28T20:05:40.286Z,2.30
2023-06-28T20:08:09.033Z,2.10
2023-06-28T20:10:37.624Z,2.10
2023-06-28T20:13:06.239Z,2.00
2023-06-28T20:15:34.751Z,1.90
2023-06-28T20:18:04.713Z,1.80
2023-06-28T20:20:34.808Z,1.93
2023-06-28T20:23:04.751Z,1.70
2023-06-28T20:25:33.253Z,1.70
2023-06-28T20:28:04.168Z,1.80
2023-06-28T20:30:32.730Z,1.83
2023-06-28T20:33:01.313Z,1.83
2023-06-28T20:35:32.329Z,2.03
2023-06-28T20:38:00.861Z,2.30
2023-06-28T20:40:29.348Z,1.83
2023-06-28T20:43:00.058Z,2.30
2023-06-28T20:45:28.788Z,2.07
2023-06-28T20:47:57.373Z,2.40
2023-06-28T20:50:26.087Z,2.43
2023-06-28T20:52:55.965Z,2.70
2023-06-28T20:55:24.478Z,2.30
2023-06-28T20:57:53.078Z,2.70
2023-06-28T21:00:24.268Z,2.60
2023-06-28T21:02:52.921Z,2.40
2023-06-28T21:05:21.457Z,2.50
2023-06-28T21:07:50.621Z,2.50
2023-06-28T21:10:20.724Z,2.67
2023-06-28T21:12:49.233Z,2.80
2023-06-28T21:15:17.758Z,2.90
2023-06-28T21:17:47.530Z,2.57
2023-06-28T21:20:16.340Z,2.80
2023-06-28T21:22:44.858Z,2.80
2023-06-28T21:25:15.043Z,2.87
2023-06-28T21:27:47.561Z,2.67
2023-06-28T21:30:16.397Z,2.70
2023-06-28T21:32:47.194Z,2.70
2023-06-28T21:35:16.322Z,2.70
2023-06-28T21:37:44.813Z,2.50
2023-06-28T21:40:13.593Z,2.73
2023-06-28T21:42:42.100Z,3.00
2023-06-28T21:45:12.691Z,2.70
2023-06-28T21:47:41.364Z,3.10
2023-06-28T21:50:10.259Z,2.60
2023-06-28T21:52:38.754Z,2.40
2023-06-28T21:55:07.736Z,2.50
2023-06-28T21:57:36.244Z,2.40
2023-06-28T22:00:11.843Z,2.67
2023-06-28T22:02:42.064Z,2.47
2023-06-28T22:05:10.748Z,2.30
2023-06-28T22:07:39.276Z,2.30
2023-06-28T22:10:08.609Z,2.70
2023-06-28T22:12:37.128Z,2.40
2023-06-28T22:15:06.561Z,2.70
2023-06-28T22:17:35.991Z,2.90
2023-06-28T22:20:06.765Z,2.90
2023-06-28T22:22:35.323Z,2.60
2023-06-28T22:25:05.264Z,3.00
2023-06-28T22:27:35.209Z,2.87
2023-06-28T22:30:05.088Z,3.13
2023-06-28T22:32:33.860Z,2.90
2023-06-28T22:35:02.456Z,2.57
2023-06-28T22:37:32.332Z,2.77
2023-06-28T22:40:00.976Z,2.90
2023-06-28T22:42:29.476Z,2.70
2023-06-28T22:44:57.962Z,2.57
2023-06-28T22:47:27.301Z,3.10
2023-06-28T22:49:55.840Z,3.17
2023-06-28T22:52:24.339Z,2.90
2023-06-28T22:54:54.393Z,2.33
2023-06-28T22:57:22.969Z,2.90
2023-06-28T22:59:51.464Z,2.60
2023-06-28T23:02:20.137Z,2.77
2023-06-28T23:04:48.806Z,3.00
2023-06-28T23:07:17.336Z,3.10
2023-06-28T23:09:45.954Z,2.47
2023-06-28T23:12:16.570Z,3.23
2023-06-28T23:14:45.083Z,2.80
2023-06-28T23:17:13.771Z,2.70
2023-06-28T23:19:42.772Z,2.77
2023-06-28T23:22:11.316Z,2.77
2023-06-28T23:24:40.861Z,2.90
2023-06-28T23:27:10.947Z,2.90
2023-06-28T23:29:42.111Z,2.90
2023-06-28T23:32:10.751Z,2.70
2023-06-28T23:34:39.252Z,2.83
2023-06-28T23:37:07.933Z,2.93
2023-06-28T23:39:38.007Z,2.90
2023-06-28T23:42:07.764Z,2.80
2023-06-28T23:44:39.593Z,2.63
2023-06-28T23:47:11.118Z,2.80
2023-06-28T23:49:40.737Z,2.87
2023-06-28T23:52:10.519Z,2.80
2023-06-28T23:54:39.915Z,2.70
2023-06-28T23:57:08.440Z,2.50
2023-06-28T23:59:37.045Z,2.83
